sensor_id;sensor_type;location;lat;lon;timestamp;P1;durP1;ratioP1;P2;durP2;ratioP2
2396;SDS011;1209;48.410;9.054;2022-07-05T00:00:06;2.23;;;2.13;;
2396;SDS011;1209;48.410;9.054;2022-07-05T00:02:32;2.53;;;2.37;;
2396;SDS011;1209;48.410;9.054;2022-07-05T00:04:57;2.03;;;1.93;;
2396;SDS011;1209;48.410;9.054;2022-07-05T00:07:23;2.50;;;2.30;;
2396;SDS011;1209;48.410;9.054;2022-07-05T00:09:49;2.77;;;2.57;;
2396;SDS011;1209;48.410;9.054;2022-07-05T00:12:20;2.50;;;2.30;;
2396;SDS011;1209;48.410;9.054;2022-07-05T00:14:48;2.33;;;2.23;;
2396;SDS011;1209;48.410;9.054;2022-07-05T00:17:14;2.60;;;2.40;;
2396;SDS011;1209;48.410;9.054;2022-07-05T00:19:40;2.00;;;1.90;;
2396;SDS011;1209;48.410;9.054;2022-07-05T00:22:06;2.77;;;2.30;;
2396;SDS011;1209;48.410;9.054;2022-07-05T00:24:31;2.40;;;2.20;;
2396;SDS011;1209;48.410;9.054;2022-07-05T00:26:57;2.33;;;2.23;;
2396;SDS011;1209;48.410;9.054;2022-07-05T00:29:23;2.63;;;2.50;;
2396;SDS011;1209;48.410;9.054;2022-07-05T00:31:48;2.73;;;2.50;;
2396;SDS011;1209;48.410;9.054;2022-07-05T00:34:13;2.60;;;2.50;;
2396;SDS011;1209;48.410;9.054;2022-07-05T00:36:39;2.30;;;2.20;;
2396;SDS011;1209;48.410;9.054;2022-07-05T00:39:05;3.33;;;2.50;;
2396;SDS011;1209;48.410;9.054;2022-07-05T00:41:31;3.00;;;2.80;;
2396;SDS011;1209;48.410;9.054;2022-07-05T00:43:58;2.90;;;2.70;;
2396;SDS011;1209;48.410;9.054;2022-07-05T00:46:28;2.10;;;2.00;;
2396;SDS011;1209;48.410;9.054;2022-07-05T00:48:53;2.37;;;2.20;;
2396;SDS011;1209;48.410;9.054;2022-07-05T00:51:20;3.00;;;2.80;;
2396;SDS011;1209;48.410;9.054;2022-07-05T00:53:46;2.47;;;2.27;;
2396;SDS011;1209;48.410;9.054;2022-07-05T00:56:12;2.70;;;2.50;;
2396;SDS011;1209;48.410;9.054;2022-07-05T00:58:39;2.80;;;2.60;;
2396;SDS011;1209;48.410;9.054;2022-07-05T01:01:06;5.00;;;2.20;;
2396;SDS011;1209;48.410;9.054;2022-07-05T01:03:32;2.60;;;2.40;;
2396;SDS011;1209;48.410;9.054;2022-07-05T01:05:59;2.60;;;2.40;;
2396;SDS011;1209;48.410;9.054;2022-07-05T01:08:26;2.23;;;2.13;;
2396;SDS011;1209;48.410;9.054;2022-07-05T01:10:53;3.50;;;2.47;;
2396;SDS011;1209;48.410;9.054;2022-07-05T01:13:20;2.20;;;2.10;;
2396;SDS011;1209;48.410;9.054;2022-07-05T01:15:45;2.47;;;2.27;;
2396;SDS011;1209;48.410;9.054;2022-07-05T01:18:12;2.40;;;2.30;;
2396;SDS011;1209;48.410;9.054;2022-07-05T01:20:37;2.77;;;2.57;;
2396;SDS011;1209;48.410;9.054;2022-07-05T01:23:03;2.37;;;2.27;;
2396;SDS011;1209;48.410;9.054;2022-07-05T01:25:30;2.43;;;2.23;;
2396;SDS011;1209;48.410;9.054;2022-07-05T01:27:56;2.63;;;2.43;;
2396;SDS011;1209;48.410;9.054;2022-07-05T01:30:24;3.13;;;2.70;;
2396;SDS011;1209;48.410;9.054;2022-07-05T01:32:49;2.67;;;2.47;;
2396;SDS011;1209;48.410;9.054;2022-07-05T01:35:16;2.60;;;2.50;;
2396;SDS011;1209;48.410;9.054;2022-07-05T01:37:47;2.37;;;2.20;;
2396;SDS011;1209;48.410;9.054;2022-07-05T01:40:13;2.30;;;2.10;;
2396;SDS011;1209;48.410;9.054;2022-07-05T01:42:39;2.70;;;2.50;;
2396;SDS011;1209;48.410;9.054;2022-07-05T01:45:04;3.60;;;2.50;;
2396;SDS011;1209;48.410;9.054;2022-07-05T01:47:32;4.30;;;2.80;;
2396;SDS011;1209;48.410;9.054;2022-07-05T01:50:00;3.00;;;2.80;;
2396;SDS011;1209;48.410;9.054;2022-07-05T01:52:27;3.03;;;2.83;;
2396;SDS011;1209;48.410;9.054;2022-07-05T01:54:57;7.00;;;2.97;;
2396;SDS011;1209;48.410;9.054;2022-07-05T01:57:23;4.40;;;3.10;;
2396;SDS011;1209;48.410;9.054;2022-07-05T01:59:48;3.80;;;3.47;;
2396;SDS011;1209;48.410;9.054;2022-07-05T02:02:14;3.20;;;3.00;;
2396;SDS011;1209;48.410;9.054;2022-07-05T02:04:40;2.67;;;2.47;;
2396;SDS011;1209;48.410;9.054;2022-07-05T02:07:07;3.03;;;2.83;;
2396;SDS011;1209;48.410;9.054;2022-07-05T02:09:33;4.07;;;3.67;;
2396;SDS011;1209;48.410;9.054;2022-07-05T02:11:59;3.97;;;3.07;;
2396;SDS011;1209;48.410;9.054;2022-07-05T02:14:25;3.60;;;3.30;;
2396;SDS011;1209;48.410;9.054;2022-07-05T02:16:50;4.37;;;3.10;;
2396;SDS011;1209;48.410;9.054;2022-07-05T02:19:16;3.57;;;2.57;;
2396;SDS011;1209;48.410;9.054;2022-07-05T02:21:41;2.97;;;2.67;;
2396;SDS011;1209;48.410;9.054;2022-07-05T02:24:07;3.30;;;3.00;;
2396;SDS011;1209;48.410;9.054;2022-07-05T02:26:33;3.27;;;2.93;;
2396;SDS011;1209;48.410;9.054;2022-07-05T02:28:58;5.23;;;3.57;;
2396;SDS011;1209;48.410;9.054;2022-07-05T02:31:25;5.17;;;2.53;;
2396;SDS011;1209;48.410;9.054;2022-07-05T02:33:50;4.00;;;3.60;;
2396;SDS011;1209;48.410;9.054;2022-07-05T02:36:17;3.60;;;2.93;;
2396;SDS011;1209;48.410;9.054;2022-07-05T02:38:43;3.83;;;3.27;;
2396;SDS011;1209;48.410;9.054;2022-07-05T02:41:10;2.73;;;2.53;;
2396;SDS011;1209;48.410;9.054;2022-07-05T02:43:37;3.90;;;2.80;;
2396;SDS011;1209;48.410;9.054;2022-07-05T02:46:03;2.80;;;2.60;;
2396;SDS011;1209;48.410;9.054;2022-07-05T02:48:30;3.57;;;3.23;;
2396;SDS011;1209;48.410;9.054;2022-07-05T02:50:55;3.10;;;2.90;;
2396;SDS011;1209;48.410;9.054;2022-07-05T02:53:21;4.23;;;2.83;;
2396;SDS011;1209;48.410;9.054;2022-07-05T02:55:47;2.83;;;2.63;;
2396;SDS011;1209;48.410;9.054;2022-07-05T02:58:12;3.00;;;2.80;;
2396;SDS011;1209;48.410;9.054;2022-07-05T03:00:38;3.73;;;2.70;;
2396;SDS011;1209;48.410;9.054;2022-07-05T03:03:03;2.90;;;2.60;;
2396;SDS011;1209;48.410;9.054;2022-07-05T03:05:28;2.90;;;2.67;;
2396;SDS011;1209;48.410;9.054;2022-07-05T03:07:54;2.87;;;2.67;;
2396;SDS011;1209;48.410;9.054;2022-07-05T03:10:19;4.70;;;2.50;;
2396;SDS011;1209;48.410;9.054;2022-07-05T03:12:45;3.13;;;2.93;;
2396;SDS011;1209;48.410;9.054;2022-07-05T03:15:10;3.03;;;2.83;;
2396;SDS011;1209;48.410;9.054;2022-07-05T03:17:35;3.33;;;3.03;;
2396;SDS011;1209;48.410;9.054;2022-07-05T03:20:01;2.50;;;2.30;;
2396;SDS011;1209;48.410;9.054;2022-07-05T03:22:27;2.80;;;2.60;;
2396;SDS011;1209;48.410;9.054;2022-07-05T03:24:53;2.70;;;2.50;;
2396;SDS011;1209;48.410;9.054;2022-07-05T03:27:18;2.80;;;2.50;;
2396;SDS011;1209;48.410;9.054;2022-07-05T03:29:43;3.00;;;2.70;;
2396;SDS011;1209;48.410;9.054;2022-07-05T03:32:09;2.70;;;2.50;;
2396;SDS011;1209;48.410;9.054;2022-07-05T03:34:34;2.53;;;2.40;;
2396;SDS011;1209;48.410;9.054;2022-07-05T03:37:00;2.97;;;2.77;;
2396;SDS011;1209;48.410;9.054;2022-07-05T03:39:26;3.87;;;3.30;;
2396;SDS011;1209;48.410;9.054;2022-07-05T03:41:51;3.53;;;2.77;;
2396;SDS011;1209;48.410;9.054;2022-07-05T03:44:17;2.70;;;2.50;;
2396;SDS011;1209;48.410;9.054;2022-07-05T03:46:42;4.23;;;2.43;;
2396;SDS011;1209;48.410;9.054;2022-07-05T03:49:08;2.57;;;2.47;;
2396;SDS011;1209;48.410;9.054;2022-07-05T03:51:34;2.57;;;2.33;;
2396;SDS011;1209;48.410;9.054;2022-07-05T03:54:01;2.73;;;2.33;;
2396;SDS011;1209;48.410;9.054;2022-07-05T03:56:26;3.50;;;3.20;;
2396;SDS011;1209;48.410;9.054;2022-07-05T03:58:52;2.43;;;2.20;;
2396;SDS011;1209;48.410;9.054;2022-07-05T04:01:17;3.10;;;2.90;;
2396;SDS011;1209;48.410;9.054;2022-07-05T04:03:42;2.53;;;2.33;;
2396;SDS011;1209;48.410;9.054;2022-07-05T04:06:10;3.80;;;2.57;;
2396;SDS011;1209;48.410;9.054;2022-07-05T04:08:36;2.67;;;2.47;;
2396;SDS011;1209;48.410;9.054;2022-07-05T04:11:03;2.13;;;2.03;;
2396;SDS011;1209;48.410;9.054;2022-07-05T04:13:29;3.70;;;3.40;;
2396;SDS011;1209;48.410;9.054;2022-07-05T04:15:54;3.10;;;2.37;;
2396;SDS011;1209;48.410;9.054;2022-07-05T04:18:20;2.40;;;2.20;;
2396;SDS011;1209;48.410;9.054;2022-07-05T04:20:49;2.33;;;2.13;;
2396;SDS011;1209;48.410;9.054;2022-07-05T04:23:14;2.80;;;2.53;;
2396;SDS011;1209;48.410;9.054;2022-07-05T04:25:41;7.23;;;2.67;;
2396;SDS011;1209;48.410;9.054;2022-07-05T04:28:06;2.90;;;2.50;;
2396;SDS011;1209;48.410;9.054;2022-07-05T04:30:31;2.87;;;2.53;;
2396;SDS011;1209;48.410;9.054;2022-07-05T04:32:57;2.30;;;2.07;;
2396;SDS011;1209;48.410;9.054;2022-07-05T04:35:22;3.20;;;2.90;;
2396;SDS011;1209;48.410;9.054;2022-07-05T04:37:51;2.67;;;2.47;;
2396;SDS011;1209;48.410;9.054;2022-07-05T04:40:16;2.33;;;2.23;;
2396;SDS011;1209;48.410;9.054;2022-07-05T04:42:42;2.90;;;2.33;;
2396;SDS011;1209;48.410;9.054;2022-07-05T04:45:08;2.50;;;2.30;;
2396;SDS011;1209;48.410;9.054;2022-07-05T04:47:35;2.50;;;2.30;;
2396;SDS011;1209;48.410;9.054;2022-07-05T04:50:02;2.70;;;2.50;;
2396;SDS011;1209;48.410;9.054;2022-07-05T04:52:30;2.83;;;2.60;;
2396;SDS011;1209;48.410;9.054;2022-07-05T04:54:56;3.40;;;2.40;;
2396;SDS011;1209;48.410;9.054;2022-07-05T04:57:21;2.80;;;2.60;;
2396;SDS011;1209;48.410;9.054;2022-07-05T05:02:21;2.70;;;2.50;;
2396;SDS011;1209;48.410;9.054;2022-07-05T05:04:46;3.10;;;2.43;;
2396;SDS011;1209;48.410;9.054;2022-07-05T05:07:15;2.93;;;2.70;;
2396;SDS011;1209;48.410;9.054;2022-07-05T05:09:42;5.63;;;2.30;;
2396;SDS011;1209;48.410;9.054;2022-07-05T05:12:08;2.10;;;2.00;;
2396;SDS011;1209;48.410;9.054;2022-07-05T05:14:35;3.20;;;2.90;;
2396;SDS011;1209;48.410;9.054;2022-07-05T05:17:01;2.33;;;2.10;;
2396;SDS011;1209;48.410;9.054;2022-07-05T05:19:29;2.43;;;2.33;;
2396;SDS011;1209;48.410;9.054;2022-07-05T05:22:07;3.10;;;2.70;;
2396;SDS011;1209;48.410;9.054;2022-07-05T05:24:32;2.77;;;2.57;;
2396;SDS011;1209;48.410;9.054;2022-07-05T05:27:01;2.63;;;2.43;;
2396;SDS011;1209;48.410;9.054;2022-07-05T05:29:28;2.40;;;2.30;;
2396;SDS011;1209;48.410;9.054;2022-07-05T05:31:57;2.10;;;2.00;;
2396;SDS011;1209;48.410;9.054;2022-07-05T05:36:54;2.47;;;2.20;;
2396;SDS011;1209;48.410;9.054;2022-07-05T05:39:20;5.47;;;2.10;;
2396;SDS011;1209;48.410;9.054;2022-07-05T05:41:47;2.77;;;2.50;;
2396;SDS011;1209;48.410;9.054;2022-07-05T05:44:13;2.30;;;2.10;;
2396;SDS011;1209;48.410;9.054;2022-07-05T05:46:49;3.10;;;2.80;;
2396;SDS011;1209;48.410;9.054;2022-07-05T05:49:14;3.83;;;3.40;;
2396;SDS011;1209;48.410;9.054;2022-07-05T05:51:41;2.00;;;1.73;;
2396;SDS011;1209;48.410;9.054;2022-07-05T05:54:06;2.23;;;2.03;;
2396;SDS011;1209;48.410;9.054;2022-07-05T05:56:31;2.37;;;2.23;;
2396;SDS011;1209;48.410;9.054;2022-07-05T05:58:58;2.20;;;2.00;;
2396;SDS011;1209;48.410;9.054;2022-07-05T06:01:23;3.40;;;2.87;;
2396;SDS011;1209;48.410;9.054;2022-07-05T06:03:49;2.00;;;1.90;;
2396;SDS011;1209;48.410;9.054;2022-07-05T06:06:15;3.40;;;2.50;;
2396;SDS011;1209;48.410;9.054;2022-07-05T06:08:41;4.80;;;3.30;;
2396;SDS011;1209;48.410;9.054;2022-07-05T06:11:06;4.27;;;3.03;;
2396;SDS011;1209;48.410;9.054;2022-07-05T06:13:32;2.17;;;2.00;;
2396;SDS011;1209;48.410;9.054;2022-07-05T06:15:57;2.77;;;2.57;;
2396;SDS011;1209;48.410;9.054;2022-07-05T06:18:23;4.30;;;2.43;;
2396;SDS011;1209;48.410;9.054;2022-07-05T06:20:48;3.53;;;2.33;;
2396;SDS011;1209;48.410;9.054;2022-07-05T06:23:15;3.03;;;2.83;;
2396;SDS011;1209;48.410;9.054;2022-07-05T06:25:40;2.20;;;2.10;;
2396;SDS011;1209;48.410;9.054;2022-07-05T06:28:07;11.93;;;2.23;;
2396;SDS011;1209;48.410;9.054;2022-07-05T06:30:34;2.83;;;2.33;;
2396;SDS011;1209;48.410;9.054;2022-07-05T06:33:02;2.80;;;2.60;;
2396;SDS011;1209;48.410;9.054;2022-07-05T06:35:28;3.17;;;2.87;;
2396;SDS011;1209;48.410;9.054;2022-07-05T06:37:57;2.60;;;2.40;;
2396;SDS011;1209;48.410;9.054;2022-07-05T06:40:31;3.70;;;2.80;;
2396;SDS011;1209;48.410;9.054;2022-07-05T06:42:58;2.73;;;2.40;;
2396;SDS011;1209;48.410;9.054;2022-07-05T06:45:24;2.90;;;2.60;;
2396;SDS011;1209;48.410;9.054;2022-07-05T06:47:57;2.50;;;2.30;;
2396;SDS011;1209;48.410;9.054;2022-07-05T06:50:25;2.20;;;2.00;;
2396;SDS011;1209;48.410;9.054;2022-07-05T06:52:54;3.00;;;2.43;;
2396;SDS011;1209;48.410;9.054;2022-07-05T06:55:20;3.07;;;2.17;;
2396;SDS011;1209;48.410;9.054;2022-07-05T06:57:46;2.23;;;2.03;;
2396;SDS011;1209;48.410;9.054;2022-07-05T07:00:13;7.43;;;2.53;;
2396;SDS011;1209;48.410;9.054;2022-07-05T07:02:40;2.70;;;2.50;;
2396;SDS011;1209;48.410;9.054;2022-07-05T07:05:06;2.40;;;2.20;;
2396;SDS011;1209;48.410;9.054;2022-07-05T07:07:33;2.13;;;1.93;;
2396;SDS011;1209;48.410;9.054;2022-07-05T07:10:17;2.30;;;2.20;;
2396;SDS011;1209;48.410;9.054;2022-07-05T07:12:43;3.00;;;2.80;;
2396;SDS011;1209;48.410;9.054;2022-07-05T07:15:08;2.20;;;2.10;;
2396;SDS011;1209;48.410;9.054;2022-07-05T07:17:35;2.60;;;2.40;;
2396;SDS011;1209;48.410;9.054;2022-07-05T07:20:00;3.57;;;1.83;;
2396;SDS011;1209;48.410;9.054;2022-07-05T07:22:26;2.30;;;2.10;;
2396;SDS011;1209;48.410;9.054;2022-07-05T07:24:53;4.80;;;1.90;;
2396;SDS011;1209;48.410;9.054;2022-07-05T07:27:19;2.20;;;2.10;;
2396;SDS011;1209;48.410;9.054;2022-07-05T07:29:46;3.83;;;3.07;;
2396;SDS011;1209;48.410;9.054;2022-07-05T07:32:12;1.90;;;1.80;;
2396;SDS011;1209;48.410;9.054;2022-07-05T07:34:38;1.80;;;1.70;;
2396;SDS011;1209;48.410;9.054;2022-07-05T07:37:04;2.30;;;2.10;;
2396;SDS011;1209;48.410;9.054;2022-07-05T07:39:31;2.20;;;2.00;;
2396;SDS011;1209;48.410;9.054;2022-07-05T07:41:57;2.27;;;2.07;;
2396;SDS011;1209;48.410;9.054;2022-07-05T07:44:23;2.43;;;2.23;;
2396;SDS011;1209;48.410;9.054;2022-07-05T07:46:50;2.10;;;2.00;;
2396;SDS011;1209;48.410;9.054;2022-07-05T07:49:16;2.50;;;2.30;;
2396;SDS011;1209;48.410;9.054;2022-07-05T07:51:41;3.57;;;2.00;;
2396;SDS011;1209;48.410;9.054;2022-07-05T07:54:08;1.83;;;1.73;;
2396;SDS011;1209;48.410;9.054;2022-07-05T07:56:34;2.63;;;2.40;;
2396;SDS011;1209;48.410;9.054;2022-07-05T07:59:01;2.13;;;2.00;;
2396;SDS011;1209;48.410;9.054;2022-07-05T08:01:27;2.73;;;2.07;;
2396;SDS011;1209;48.410;9.054;2022-07-05T08:03:53;1.57;;;1.50;;
2396;SDS011;1209;48.410;9.054;2022-07-05T08:06:18;2.40;;;1.97;;
2396;SDS011;1209;48.410;9.054;2022-07-05T08:08:45;2.30;;;2.20;;
2396;SDS011;1209;48.410;9.054;2022-07-05T08:11:10;2.27;;;2.17;;
2396;SDS011;1209;48.410;9.054;2022-07-05T08:13:37;2.50;;;1.90;;
2396;SDS011;1209;48.410;9.054;2022-07-05T08:16:07;2.50;;;2.30;;
2396;SDS011;1209;48.410;9.054;2022-07-05T08:18:33;1.80;;;1.70;;
2396;SDS011;1209;48.410;9.054;2022-07-05T08:21:17;2.40;;;2.20;;
2396;SDS011;1209;48.410;9.054;2022-07-05T08:23:55;2.10;;;2.00;;
2396;SDS011;1209;48.410;9.054;2022-07-05T08:26:21;2.20;;;2.10;;
2396;SDS011;1209;48.410;9.054;2022-07-05T08:28:46;1.97;;;1.77;;
2396;SDS011;1209;48.410;9.054;2022-07-05T08:33:45;2.30;;;2.10;;
2396;SDS011;1209;48.410;9.054;2022-07-05T08:36:10;1.90;;;1.77;;
2396;SDS011;1209;48.410;9.054;2022-07-05T08:38:36;2.20;;;2.00;;
2396;SDS011;1209;48.410;9.054;2022-07-05T08:41:03;1.80;;;1.70;;
2396;SDS011;1209;48.410;9.054;2022-07-05T08:43:32;2.00;;;1.83;;
2396;SDS011;1209;48.410;9.054;2022-07-05T08:46:10;4.43;;;1.93;;
2396;SDS011;1209;48.410;9.054;2022-07-05T08:48:37;1.40;;;1.40;;
2396;SDS011;1209;48.410;9.054;2022-07-05T08:51:13;1.60;;;1.40;;
2396;SDS011;1209;48.410;9.054;2022-07-05T08:53:42;4.90;;;1.90;;
2396;SDS011;1209;48.410;9.054;2022-07-05T08:56:08;1.70;;;1.60;;
2396;SDS011;1209;48.410;9.054;2022-07-05T08:58:36;1.90;;;1.77;;
2396;SDS011;1209;48.410;9.054;2022-07-05T09:01:02;2.67;;;1.73;;
2396;SDS011;1209;48.410;9.054;2022-07-05T09:03:32;1.33;;;1.23;;
2396;SDS011;1209;48.410;9.054;2022-07-05T09:06:01;2.43;;;1.60;;
2396;SDS011;1209;48.410;9.054;2022-07-05T09:08:37;1.40;;;1.40;;
2396;SDS011;1209;48.410;9.054;2022-07-05T09:13:39;1.50;;;1.40;;
2396;SDS011;1209;48.410;9.054;2022-07-05T09:16:16;2.87;;;1.60;;
2396;SDS011;1209;48.410;9.054;2022-07-05T09:18:43;3.60;;;1.50;;
2396;SDS011;1209;48.410;9.054;2022-07-05T09:21:13;3.77;;;2.00;;
2396;SDS011;1209;48.410;9.054;2022-07-05T09:23:43;2.50;;;1.50;;
2396;SDS011;1209;48.410;9.054;2022-07-05T09:26:10;1.80;;;1.70;;
2396;SDS011;1209;48.410;9.054;2022-07-05T09:28:36;2.33;;;2.00;;
2396;SDS011;1209;48.410;9.054;2022-07-05T09:31:01;1.40;;;1.30;;
2396;SDS011;1209;48.410;9.054;2022-07-05T09:33:27;1.67;;;1.57;;
2396;SDS011;1209;48.410;9.054;2022-07-05T09:35:56;3.17;;;1.80;;
2396;SDS011;1209;48.410;9.054;2022-07-05T09:38:23;1.93;;;1.70;;
2396;SDS011;1209;48.410;9.054;2022-07-05T09:40:51;1.60;;;1.50;;
2396;SDS011;1209;48.410;9.054;2022-07-05T09:43:22;2.00;;;1.50;;
2396;SDS011;1209;48.410;9.054;2022-07-05T09:45:52;1.73;;;1.60;;
2396;SDS011;1209;48.410;9.054;2022-07-05T09:48:28;1.53;;;1.50;;
2396;SDS011;1209;48.410;9.054;2022-07-05T09:51:08;1.47;;;1.37;;
2396;SDS011;1209;48.410;9.054;2022-07-05T09:53:49;1.10;;;1.10;;
2396;SDS011;1209;48.410;9.054;2022-07-05T09:56:18;1.40;;;1.30;;
2396;SDS011;1209;48.410;9.054;2022-07-05T09:58:44;1.40;;;1.30;;
2396;SDS011;1209;48.410;9.054;2022-07-05T10:06:23;1.40;;;1.30;;
2396;SDS011;1209;48.410;9.054;2022-07-05T10:08:50;1.70;;;1.20;;
2396;SDS011;1209;48.410;9.054;2022-07-05T10:11:23;1.43;;;1.30;;
2396;SDS011;1209;48.410;9.054;2022-07-05T10:13:52;1.10;;;1.00;;
2396;SDS011;1209;48.410;9.054;2022-07-05T10:16:22;1.27;;;1.00;;
2396;SDS011;1209;48.410;9.054;2022-07-05T10:18:50;1.40;;;1.30;;
2396;SDS011;1209;48.410;9.054;2022-07-05T10:21:19;1.37;;;1.27;;
2396;SDS011;1209;48.410;9.054;2022-07-05T10:23:47;1.70;;;1.20;;
2396;SDS011;1209;48.410;9.054;2022-07-05T10:26:30;1.30;;;1.30;;
2396;SDS011;1209;48.410;9.054;2022-07-05T10:28:58;1.37;;;1.30;;
2396;SDS011;1209;48.410;9.054;2022-07-05T10:31:25;2.03;;;1.20;;
2396;SDS011;1209;48.410;9.054;2022-07-05T10:33:53;1.37;;;1.30;;
2396;SDS011;1209;48.410;9.054;2022-07-05T10:36:21;1.50;;;1.40;;
2396;SDS011;1209;48.410;9.054;2022-07-05T10:38:48;1.43;;;1.33;;
2396;SDS011;1209;48.410;9.054;2022-07-05T10:41:14;1.00;;;1.00;;
2396;SDS011;1209;48.410;9.054;2022-07-05T10:43:44;1.23;;;1.23;;
2396;SDS011;1209;48.410;9.054;2022-07-05T10:49:15;0.90;;;0.90;;
2396;SDS011;1209;48.410;9.054;2022-07-05T10:51:42;1.63;;;1.17;;
2396;SDS011;1209;48.410;9.054;2022-07-05T10:54:08;0.97;;;0.97;;
2396;SDS011;1209;48.410;9.054;2022-07-05T10:56:35;1.20;;;1.20;;
2396;SDS011;1209;48.410;9.054;2022-07-05T10:59:10;4.63;;;1.30;;
2396;SDS011;1209;48.410;9.054;2022-07-05T11:01:42;1.27;;;1.27;;
2396;SDS011;1209;48.410;9.054;2022-07-05T11:04:11;1.93;;;1.40;;
2396;SDS011;1209;48.410;9.054;2022-07-05T11:06:43;1.10;;;1.10;;
2396;SDS011;1209;48.410;9.054;2022-07-05T11:09:21;1.40;;;1.30;;
2396;SDS011;1209;48.410;9.054;2022-07-05T11:12:07;1.40;;;1.30;;
2396;SDS011;1209;48.410;9.054;2022-07-05T11:14:34;1.53;;;1.43;;
2396;SDS011;1209;48.410;9.054;2022-07-05T11:19:33;1.50;;;1.30;;
2396;SDS011;1209;48.410;9.054;2022-07-05T11:22:00;2.20;;;1.47;;
2396;SDS011;1209;48.410;9.054;2022-07-05T11:24:26;1.50;;;1.40;;
2396;SDS011;1209;48.410;9.054;2022-07-05T11:26:53;1.03;;;1.00;;
2396;SDS011;1209;48.410;9.054;2022-07-05T11:32:08;2.47;;;0.97;;
2396;SDS011;1209;48.410;9.054;2022-07-05T11:34:36;1.60;;;1.50;;
2396;SDS011;1209;48.410;9.054;2022-07-05T11:37:24;1.40;;;1.30;;
2396;SDS011;1209;48.410;9.054;2022-07-05T11:42:36;1.23;;;1.13;;
2396;SDS011;1209;48.410;9.054;2022-07-05T11:45:14;1.97;;;0.93;;
2396;SDS011;1209;48.410;9.054;2022-07-05T11:47:44;1.10;;;1.10;;
2396;SDS011;1209;48.410;9.054;2022-07-05T11:50:10;1.20;;;1.20;;
2396;SDS011;1209;48.410;9.054;2022-07-05T11:52:36;1.40;;;1.30;;
2396;SDS011;1209;48.410;9.054;2022-07-05T11:55:04;2.10;;;1.37;;
2396;SDS011;1209;48.410;9.054;2022-07-05T11:57:37;1.30;;;1.20;;
2396;SDS011;1209;48.410;9.054;2022-07-05T12:00:24;1.00;;;1.00;;
2396;SDS011;1209;48.410;9.054;2022-07-05T12:02:50;1.53;;;0.97;;
2396;SDS011;1209;48.410;9.054;2022-07-05T12:05:17;1.50;;;1.50;;
2396;SDS011;1209;48.410;9.054;2022-07-05T12:07:48;1.57;;;1.47;;
2396;SDS011;1209;48.410;9.054;2022-07-05T12:10:18;1.30;;;1.20;;
2396;SDS011;1209;48.410;9.054;2022-07-05T12:13:10;1.07;;;1.07;;
2396;SDS011;1209;48.410;9.054;2022-07-05T12:15:36;1.43;;;1.20;;
2396;SDS011;1209;48.410;9.054;2022-07-05T12:18:04;1.27;;;1.17;;
2396;SDS011;1209;48.410;9.054;2022-07-05T12:20:34;1.50;;;1.37;;
2396;SDS011;1209;48.410;9.054;2022-07-05T12:23:01;1.20;;;1.20;;
2396;SDS011;1209;48.410;9.054;2022-07-05T12:25:28;2.17;;;1.20;;
2396;SDS011;1209;48.410;9.054;2022-07-05T12:27:55;1.10;;;1.10;;
2396;SDS011;1209;48.410;9.054;2022-07-05T12:30:22;1.63;;;1.40;;
2396;SDS011;1209;48.410;9.054;2022-07-05T12:33:02;1.50;;;1.40;;
2396;SDS011;1209;48.410;9.054;2022-07-05T12:35:44;1.00;;;1.00;;
2396;SDS011;1209;48.410;9.054;2022-07-05T12:38:14;1.63;;;1.53;;
2396;SDS011;1209;48.410;9.054;2022-07-05T12:40:44;1.07;;;1.07;;
2396;SDS011;1209;48.410;9.054;2022-07-05T12:45:40;3.03;;;1.30;;
2396;SDS011;1209;48.410;9.054;2022-07-05T12:48:08;1.40;;;1.33;;
2396;SDS011;1209;48.410;9.054;2022-07-05T12:50:47;1.30;;;1.20;;
2396;SDS011;1209;48.410;9.054;2022-07-05T12:53:14;1.20;;;1.20;;
2396;SDS011;1209;48.410;9.054;2022-07-05T12:55:59;1.23;;;1.13;;
2396;SDS011;1209;48.410;9.054;2022-07-05T12:58:51;2.10;;;1.37;;
2396;SDS011;1209;48.410;9.054;2022-07-05T13:06:39;1.00;;;1.00;;
2396;SDS011;1209;48.410;9.054;2022-07-05T13:09:07;1.00;;;1.00;;
2396;SDS011;1209;48.410;9.054;2022-07-05T13:11:33;1.20;;;1.20;;
2396;SDS011;1209;48.410;9.054;2022-07-05T13:13:59;1.30;;;1.20;;
2396;SDS011;1209;48.410;9.054;2022-07-05T13:16:24;1.13;;;1.00;;
2396;SDS011;1209;48.410;9.054;2022-07-05T13:18:50;1.73;;;1.43;;
2396;SDS011;1209;48.410;9.054;2022-07-05T13:21:16;6.87;;;1.10;;
2396;SDS011;1209;48.410;9.054;2022-07-05T13:23:42;1.10;;;1.10;;
2396;SDS011;1209;48.410;9.054;2022-07-05T13:26:09;1.53;;;1.10;;
2396;SDS011;1209;48.410;9.054;2022-07-05T13:28:34;1.35;;;1.30;;
2396;SDS011;1209;48.410;9.054;2022-07-05T13:31:02;1.00;;;1.00;;
2396;SDS011;1209;48.410;9.054;2022-07-05T13:33:27;0.93;;;0.93;;
2396;SDS011;1209;48.410;9.054;2022-07-05T13:35:53;1.40;;;1.30;;
2396;SDS011;1209;48.410;9.054;2022-07-05T13:38:19;2.00;;;1.00;;
2396;SDS011;1209;48.410;9.054;2022-07-05T13:40:44;2.03;;;1.43;;
2396;SDS011;1209;48.410;9.054;2022-07-05T13:43:10;1.47;;;1.40;;
2396;SDS011;1209;48.410;9.054;2022-07-05T13:45:35;1.47;;;1.33;;
2396;SDS011;1209;48.410;9.054;2022-07-05T13:48:01;1.23;;;1.23;;
2396;SDS011;1209;48.410;9.054;2022-07-05T13:50:26;1.57;;;1.47;;
2396;SDS011;1209;48.410;9.054;2022-07-05T13:52:58;1.80;;;1.60;;
2396;SDS011;1209;48.410;9.054;2022-07-05T13:55:24;1.10;;;1.10;;
2396;SDS011;1209;48.410;9.054;2022-07-05T13:57:49;1.50;;;1.40;;
2396;SDS011;1209;48.410;9.054;2022-07-05T14:00:15;2.07;;;1.53;;
2396;SDS011;1209;48.410;9.054;2022-07-05T14:02:40;1.00;;;1.00;;
2396;SDS011;1209;48.410;9.054;2022-07-05T14:05:06;2.13;;;1.70;;
2396;SDS011;1209;48.410;9.054;2022-07-05T14:07:32;2.00;;;1.40;;
2396;SDS011;1209;48.410;9.054;2022-07-05T14:09:58;1.43;;;1.33;;
2396;SDS011;1209;48.410;9.054;2022-07-05T14:12:24;1.20;;;1.20;;
2396;SDS011;1209;48.410;9.054;2022-07-05T14:14:49;1.67;;;1.57;;
2396;SDS011;1209;48.410;9.054;2022-07-05T14:17:14;1.57;;;1.50;;
2396;SDS011;1209;48.410;9.054;2022-07-05T14:19:40;1.20;;;1.20;;
2396;SDS011;1209;48.410;9.054;2022-07-05T14:22:05;1.23;;;1.23;;
2396;SDS011;1209;48.410;9.054;2022-07-05T14:24:30;1.47;;;1.37;;
2396;SDS011;1209;48.410;9.054;2022-07-05T14:26:56;1.10;;;1.10;;
2396;SDS011;1209;48.410;9.054;2022-07-05T14:29:22;1.30;;;1.00;;
2396;SDS011;1209;48.410;9.054;2022-07-05T14:31:47;1.30;;;1.20;;
2396;SDS011;1209;48.410;9.054;2022-07-05T14:34:12;0.90;;;0.90;;
2396;SDS011;1209;48.410;9.054;2022-07-05T14:36:39;1.33;;;1.23;;
2396;SDS011;1209;48.410;9.054;2022-07-05T14:39:04;1.40;;;1.30;;
2396;SDS011;1209;48.410;9.054;2022-07-05T14:41:29;1.50;;;1.50;;
2396;SDS011;1209;48.410;9.054;2022-07-05T14:43:55;1.20;;;1.20;;
2396;SDS011;1209;48.410;9.054;2022-07-05T14:46:20;1.40;;;1.30;;
2396;SDS011;1209;48.410;9.054;2022-07-05T14:48:46;1.10;;;1.10;;
2396;SDS011;1209;48.410;9.054;2022-07-05T14:51:12;1.47;;;1.37;;
2396;SDS011;1209;48.410;9.054;2022-07-05T14:53:39;1.40;;;1.30;;
2396;SDS011;1209;48.410;9.054;2022-07-05T14:56:07;1.43;;;1.43;;
2396;SDS011;1209;48.410;9.054;2022-07-05T14:58:32;1.93;;;1.20;;
2396;SDS011;1209;48.410;9.054;2022-07-05T15:00:58;1.23;;;1.23;;
2396;SDS011;1209;48.410;9.054;2022-07-05T15:03:24;1.47;;;1.23;;
2396;SDS011;1209;48.410;9.054;2022-07-05T15:05:50;1.37;;;1.33;;
2396;SDS011;1209;48.410;9.054;2022-07-05T15:08:17;4.10;;;2.43;;
2396;SDS011;1209;48.410;9.054;2022-07-05T15:10:45;2.80;;;2.60;;
2396;SDS011;1209;48.410;9.054;2022-07-05T15:13:11;1.63;;;1.53;;
2396;SDS011;1209;48.410;9.054;2022-07-05T15:15:37;1.60;;;1.50;;
2396;SDS011;1209;48.410;9.054;2022-07-05T15:18:03;1.13;;;1.10;;
2396;SDS011;1209;48.410;9.054;2022-07-05T15:20:29;1.33;;;1.20;;
2396;SDS011;1209;48.410;9.054;2022-07-05T15:22:55;1.20;;;1.20;;
2396;SDS011;1209;48.410;9.054;2022-07-05T15:25:22;1.23;;;1.13;;
2396;SDS011;1209;48.410;9.054;2022-07-05T15:27:48;1.53;;;1.40;;
2396;SDS011;1209;48.410;9.054;2022-07-05T15:30:14;3.83;;;1.30;;
2396;SDS011;1209;48.410;9.054;2022-07-05T15:32:42;1.60;;;1.50;;
2396;SDS011;1209;48.410;9.054;2022-07-05T15:35:08;1.63;;;1.53;;
2396;SDS011;1209;48.410;9.054;2022-07-05T15:37:35;1.40;;;1.30;;
2396;SDS011;1209;48.410;9.054;2022-07-05T15:40:01;1.50;;;1.40;;
2396;SDS011;1209;48.410;9.054;2022-07-05T15:42:27;1.40;;;1.30;;
2396;SDS011;1209;48.410;9.054;2022-07-05T15:44:53;2.03;;;1.20;;
2396;SDS011;1209;48.410;9.054;2022-07-05T15:47:18;1.60;;;1.50;;
2396;SDS011;1209;48.410;9.054;2022-07-05T15:49:43;1.47;;;1.40;;